Главная страница
METAR-TAF:

METAR-TAF

Аэропорты :

Уагадугу, Буркина-Фасо

широта: 12-21N, долгота: 001-31W, высота над уровнем моря: 316 м

Текущие метеонаблюдения

Эта сводка был подготовлена 24 минут назад, в 07:00 UTC
Ветер 6 Узел от западный-юго-западный
Температура 31°C
Влажность 49%
Давление 1012 hPa
Видимость: 8000 м

METAR: DFFD 230700Z 25006KT 8000 NSC 31/19 Q1012 NOSIG

Время: 07:24 (07:24 UTC)

Прогноз

Эта сводка был подготовлена 2 часа и 24 минут назад, в 05:00 UTC
Прогноз действительный с 23-го 06 UTC до 24-го 12 UTC
Ветер 8 Узел переменных направлений
Видимость 10 км и более
Нет облачности ниже 1500 м, и нет кучево-дождевой облачности
временами
С 23-го 15 UTC до 23-го 24 UTC
небольшая облачность на высоте 2600 фута
небольшая облачность на высоте 4000 фута, Кучево-дождевые.
гроза

TAF: DFFD 230500Z 2306/2412 VRB08KT CAVOK TEMPO 2315/2324 TS FEW026 FEW040CB

Метеонаблюдения и прогнозы для более 4000 аэропортов (сводки METAR и TAF).

Имеющиеся станции представлены на карте желтыми и красными точками.

Чтобы увидеть название станции, наведите на нее мышь.

Затем щелкните, чтобы увидеть метеонаблюдения и метеопрогнозы.

Управление картой: чтобы увеличить масштаб, щелкните зеленые кнопки с черным крестиком; чтобы уменьшить масштаб, щелкните зеленую кнопку с тире; для просмотра соседних карт щелкайте зеленые стрелки.


METAR-TAF: